createdAt,value
2017-12-22T11:57:08.940Z,23.00
2017-12-22T11:58:08.946Z,22.91
2017-12-22T11:59:08.964Z,22.79
2017-12-22T12:00:08.981Z,22.61
2017-12-22T12:01:09.002Z,22.49
2017-12-22T12:02:09.079Z,22.37
2017-12-22T12:03:09.045Z,22.27
2017-12-22T12:04:09.119Z,22.15
2017-12-22T12:05:09.096Z,22.07
2017-12-22T12:06:09.112Z,22.06
2017-12-22T12:07:09.133Z,21.86
2017-12-22T12:08:09.155Z,21.84
2017-12-22T12:09:09.177Z,21.80
2017-12-22T12:10:09.199Z,21.79
2017-12-22T12:11:09.226Z,21.75
2017-12-22T12:12:09.242Z,21.67
2017-12-22T12:13:09.267Z,21.68
2017-12-22T12:14:09.287Z,21.69
2017-12-22T12:15:09.311Z,21.64
2017-12-22T12:16:09.332Z,21.68
2017-12-22T12:17:09.364Z,21.61
2017-12-22T12:18:09.378Z,21.61
2017-12-22T12:19:09.403Z,21.58
2017-12-22T12:20:09.425Z,21.68
2017-12-22T12:21:09.448Z,21.67
2017-12-22T12:22:09.469Z,21.61
2017-12-22T12:23:09.492Z,21.65
2017-12-22T12:24:09.818Z,21.65
2017-12-22T12:25:09.538Z,21.62
2017-12-22T12:26:09.644Z,21.67
2017-12-22T12:27:09.585Z,21.67
2017-12-22T12:28:09.605Z,21.68
2017-12-22T12:29:09.645Z,21.79
2017-12-22T12:30:09.699Z,21.74
2017-12-22T12:31:09.678Z,21.67
2017-12-22T12:32:09.732Z,21.72
2017-12-22T12:33:09.733Z,21.77
2017-12-22T12:34:09.777Z,21.74
2017-12-22T12:35:09.768Z,21.75
2017-12-22T12:36:09.808Z,21.77
2017-12-22T12:37:09.848Z,21.79
2017-12-22T12:38:09.889Z,21.80
2017-12-22T12:39:09.858Z,21.75
2017-12-22T12:40:09.933Z,21.94
2017-12-22T12:41:09.903Z,21.88
2017-12-22T12:42:09.932Z,21.86
2017-12-22T12:43:09.953Z,21.86
2017-12-22T12:44:09.972Z,21.88
